Al Hillah, Iraq
Current Conditions -  °F | °C
As of 6:55 AM on Monday 24 Nov 2014 (Local Time) from KQTZ Reporting Station
Haze Haze  
Wind Chill: 63°   Ceiling: Unl
Heat Index: 63°   Visibility: 3mi
Dew Point: 45°   Wind: 2mph
Humidity: 52%   Direction: 30°NNE
Pressure: 30.02"   Gusts: NA
Location:  32.48°N, 44.46°E
Report Text: KQTZ 240355Z 03002KT 5000 BR FEW080 SCT250 17/07 A3002 RMK SLP164 WND/ALSTG/SLP ESTMD
Loading
Personal Weather Stations






























Interactive Weather Map New forecast layout! Learn more

10-Day Weather Forecast

Advertisements
Track Severe Weather on mobile